createdAt,value
2019-05-29T00:02:22.899Z,94096.55
2019-05-29T00:07:27.532Z,94108.55
2019-05-29T00:12:32.176Z,94105.82
2019-05-29T00:17:36.779Z,94109.75
2019-05-29T00:22:41.338Z,94105.88
2019-05-29T00:27:45.860Z,94115.20
2019-05-29T00:32:50.464Z,94119.70
2019-05-29T00:37:55.182Z,94119.55
2019-05-29T00:42:59.880Z,94123.99
2019-05-29T00:48:04.498Z,94124.40
2019-05-29T00:53:10.158Z,94123.91
2019-05-29T00:58:14.939Z,94136.70
2019-05-29T01:03:19.801Z,94113.09
2019-05-29T01:08:24.486Z,94131.81
2019-05-29T01:13:29.205Z,94121.98
2019-05-29T01:18:34.824Z,94126.84
2019-05-29T01:23:39.392Z,94133.16
2019-05-29T01:28:43.956Z,94130.07
2019-05-29T01:33:49.956Z,94130.47
2019-05-29T01:38:54.551Z,94124.35
2019-05-29T01:43:59.052Z,94130.88
2019-05-29T01:49:03.663Z,94136.32
2019-05-29T01:54:08.281Z,94139.43
2019-05-29T01:59:12.840Z,94142.34
2019-05-29T02:04:17.846Z,94142.64
2019-05-29T02:09:22.518Z,94151.91
2019-05-29T02:14:27.169Z,94154.61
2019-05-29T02:19:31.799Z,94155.21
2019-05-29T02:24:36.389Z,94155.89
2019-05-29T02:29:40.893Z,94161.88
2019-05-29T02:34:45.374Z,94158.88
2019-05-29T02:39:49.942Z,94158.15
2019-05-29T02:44:54.502Z,94171.13
2019-05-29T02:49:59.061Z,94178.86
2019-05-29T02:55:04.961Z,94178.64
2019-05-29T03:00:10.368Z,94184.19
2019-05-29T03:05:15.090Z,94191.53
2019-05-29T03:10:19.823Z,94191.13
2019-05-29T03:15:25.621Z,94193.09
2019-05-29T03:20:30.440Z,94195.64
2019-05-29T03:25:36.905Z,94204.12
2019-05-29T03:30:45.768Z,94203.21
2019-05-29T03:35:48.806Z,94203.66
2019-05-29T03:40:53.627Z,94211.28
2019-05-29T03:45:58.197Z,94209.94
2019-05-29T03:51:02.771Z,94211.30
2019-05-29T03:56:07.395Z,94207.78
2019-05-29T04:01:12.107Z,94211.19
2019-05-29T04:06:16.652Z,94212.97
2019-05-29T04:11:21.252Z,94207.97
2019-05-29T04:16:27.628Z,94215.15
2019-05-29T04:21:34.303Z,94218.55
2019-05-29T04:26:41.124Z,94218.77
2019-05-29T04:31:45.661Z,94224.92
2019-05-29T04:36:50.145Z,94233.07
2019-05-29T04:41:54.680Z,94236.42
2019-05-29T04:47:10.057Z,94239.03
2019-05-29T04:52:05.762Z,94242.83
2019-05-29T04:57:10.428Z,94243.35
2019-05-29T05:02:16.094Z,94247.94
2019-05-29T05:07:20.651Z,94253.30
2019-05-29T05:12:25.195Z,94250.39
2019-05-29T05:17:29.824Z,94252.89
2019-05-29T05:22:34.423Z,94254.31
2019-05-29T05:27:40.475Z,94254.34
2019-05-29T05:32:45.502Z,94257.57
2019-05-29T05:37:50.256Z,94257.84
2019-05-29T05:42:54.857Z,94258.59
2019-05-29T05:47:59.403Z,94256.34
2019-05-29T05:53:04.074Z,94252.33
2019-05-29T05:58:08.728Z,94258.98
2019-05-29T06:03:13.295Z,94260.69
2019-05-29T06:08:17.964Z,94264.68
2019-05-29T06:13:22.676Z,94268.27
2019-05-29T06:18:27.277Z,94279.89
2019-05-29T06:23:32.769Z,94284.21
2019-05-29T06:28:37.524Z,94273.38
2019-05-29T06:33:43.665Z,94275.77
2019-05-29T06:38:48.645Z,94275.84
2019-05-29T06:43:53.265Z,94275.66
2019-05-29T06:49:00.630Z,94283.85
2019-05-29T06:54:04.298Z,94281.57
2019-05-29T06:59:08.976Z,94296.59
2019-05-29T07:04:13.541Z,94281.20
2019-05-29T07:09:18.152Z,94282.02
2019-05-29T07:14:22.729Z,94290.83
2019-05-29T07:19:47.083Z,94282.69
2019-05-29T07:24:33.550Z,94281.33
2019-05-29T07:29:39.001Z,94284.17
2019-05-29T07:34:56.735Z,94284.88
2019-05-29T07:39:49.901Z,94287.03
2019-05-29T07:44:54.524Z,94288.45
2019-05-29T07:49:59.280Z,94289.42
2019-05-29T07:55:05.195Z,94286.34
2019-05-29T08:00:11.771Z,94286.42
2019-05-29T08:05:16.693Z,94275.34
2019-05-29T08:10:21.706Z,94281.12
2019-05-29T08:15:26.527Z,94272.05
2019-05-29T08:20:31.106Z,94282.73
2019-05-29T08:25:35.572Z,94284.48
2019-05-29T08:30:47.393Z,94279.48
2019-05-29T08:35:55.705Z,94281.83
2019-05-29T08:40:54.272Z,94272.34
2019-05-29T08:45:58.847Z,94276.73
2019-05-29T08:51:03.489Z,94281.35
2019-05-29T08:56:08.433Z,94278.19
2019-05-29T09:01:13.042Z,94285.72
2019-05-29T09:06:17.547Z,94281.36
2019-05-29T09:11:22.283Z,94276.27
2019-05-29T09:16:26.982Z,94273.38
2019-05-29T09:21:31.633Z,94275.05
2019-05-29T09:26:36.283Z,94273.25
2019-05-29T09:31:40.887Z,94269.16
2019-05-29T09:36:45.522Z,94263.95
2019-05-29T09:41:50.239Z,94267.08
2019-05-29T09:46:54.911Z,94267.73
2019-05-29T09:51:59.980Z,94269.91
2019-05-29T09:57:04.788Z,94263.35
2019-05-29T10:02:09.723Z,94264.98
2019-05-29T10:07:14.359Z,94263.34
2019-05-29T10:12:19.023Z,94254.03
2019-05-29T10:17:23.532Z,94246.13
2019-05-29T10:22:28.147Z,94243.34
2019-05-29T10:27:32.708Z,94237.91
2019-05-29T10:32:37.290Z,94239.91
2019-05-29T10:37:42.739Z,94229.45
2019-05-29T10:42:47.519Z,94235.47
2019-05-29T10:47:52.779Z,94228.92
2019-05-29T10:53:01.639Z,94222.11
2019-05-29T10:58:06.329Z,94226.69
2019-05-29T11:03:10.965Z,94217.72
2019-05-29T11:08:15.693Z,94219.27
2019-05-29T11:13:20.506Z,94226.61
2019-05-29T11:18:25.195Z,94216.97
2019-05-29T11:23:29.817Z,94218.80
2019-05-29T11:28:35.253Z,94210.75
2019-05-29T11:33:42.794Z,94211.62
2019-05-29T11:38:47.381Z,94216.55
2019-05-29T11:43:52.668Z,94213.05
2019-05-29T11:48:57.401Z,94214.83
2019-05-29T11:54:02.433Z,94210.67
2019-05-29T11:59:07.306Z,94207.03
2019-05-29T12:04:25.463Z,94210.59
2019-05-29T12:09:32.207Z,94205.14
2019-05-29T12:14:24.762Z,94207.88
2019-05-29T12:19:29.314Z,94207.06
2019-05-29T12:24:33.938Z,94203.19
2019-05-29T12:29:38.509Z,94201.57
2019-05-29T12:34:53.217Z,94196.96
2019-05-29T12:39:51.640Z,94199.41
2019-05-29T12:44:57.551Z,94200.23
2019-05-29T12:50:02.732Z,94188.52
2019-05-29T12:55:09.401Z,94194.50
2019-05-29T13:00:15.926Z,94188.15
2019-05-29T13:05:22.009Z,94183.31
2019-05-29T13:10:30.926Z,94181.03
2019-05-29T13:15:34.215Z,94177.31
2019-05-29T13:20:38.759Z,94172.88
2019-05-29T13:25:43.461Z,94165.80
2019-05-29T13:30:48.157Z,94162.83
2019-05-29T13:35:52.657Z,94166.67
2019-05-29T13:40:58.405Z,94171.55
2019-05-29T13:46:04.737Z,94170.70
2019-05-29T13:51:09.416Z,94180.88
2019-05-29T13:56:13.942Z,94171.29
2019-05-29T14:01:18.841Z,94172.93
2019-05-29T14:06:23.426Z,94176.70
2019-05-29T14:11:28.078Z,94179.48
2019-05-29T14:16:32.915Z,94184.63
2019-05-29T14:21:37.717Z,94194.69
2019-05-29T14:26:42.474Z,94184.34
2019-05-29T14:31:47.099Z,94194.77
2019-05-29T14:36:51.656Z,94195.59
2019-05-29T14:41:58.713Z,94189.87
2019-05-29T14:47:03.801Z,94188.77
2019-05-29T14:52:08.799Z,94179.06
2019-05-29T14:57:24.672Z,94181.99
2019-05-29T15:02:23.768Z,94187.83
2019-05-29T15:07:26.192Z,94178.58
2019-05-29T15:12:30.888Z,94188.36
2019-05-29T15:17:35.531Z,94176.69
2019-05-29T15:22:40.226Z,94180.91
2019-05-29T15:27:44.831Z,94169.72
2019-05-29T15:32:49.980Z,94187.33
2019-05-29T15:37:54.871Z,94208.31
2019-05-29T15:42:59.413Z,94205.55
2019-05-29T15:48:04.064Z,94215.59
2019-05-29T15:53:08.927Z,94209.30
2019-05-29T15:58:13.689Z,94230.58
2019-05-29T16:03:18.225Z,94232.38
2019-05-29T16:08:22.777Z,94248.42
2019-05-29T16:13:27.578Z,94262.48
2019-05-29T16:18:32.286Z,94281.30
2019-05-29T16:23:36.923Z,94280.90
2019-05-29T16:28:41.663Z,94280.61
2019-05-29T16:33:46.297Z,94275.95
2019-05-29T16:38:50.843Z,94280.30
2019-05-29T16:43:55.407Z,94292.38
2019-05-29T16:49:00.091Z,94287.87
2019-05-29T16:54:04.984Z,94287.84
2019-05-29T16:59:09.638Z,94280.08
2019-05-29T17:04:15.475Z,94290.20
2019-05-29T17:09:22.336Z,94294.65
2019-05-29T17:14:26.429Z,94297.23
2019-05-29T17:19:32.309Z,94312.00
2019-05-29T17:24:37.286Z,94307.97
2019-05-29T17:29:41.753Z,94315.51
2019-05-29T17:34:46.487Z,94318.09
2019-05-29T17:39:51.037Z,94328.85
2019-05-29T17:44:55.676Z,94338.48
2019-05-29T17:50:00.250Z,94348.46
2019-05-29T17:55:06.894Z,94351.41
2019-05-29T18:00:17.991Z,94343.34
2019-05-29T18:05:22.676Z,94353.94
2019-05-29T18:10:27.482Z,94354.38
2019-05-29T18:15:32.187Z,94362.63
2019-05-29T18:20:36.779Z,94364.98
2019-05-29T18:25:41.444Z,94374.80
2019-05-29T18:30:47.156Z,94381.73
2019-05-29T18:35:52.327Z,94394.08
2019-05-29T18:40:58.978Z,94404.20
2019-05-29T18:46:04.711Z,94410.30
2019-05-29T18:51:09.341Z,94423.82
2019-05-29T18:56:13.972Z,94435.32
2019-05-29T19:01:18.527Z,94433.45
2019-05-29T19:06:23.633Z,94446.63
2019-05-29T19:11:30.527Z,94456.81
2019-05-29T19:16:35.152Z,94469.89
2019-05-29T19:21:42.456Z,94462.70
2019-05-29T19:26:47.089Z,94469.44
2019-05-29T19:31:51.713Z,94485.50
2019-05-29T19:36:56.381Z,94491.97
2019-05-29T19:42:01.062Z,94493.39
2019-05-29T19:47:05.788Z,94501.72
2019-05-29T19:52:11.891Z,94507.02
2019-05-29T19:57:16.541Z,94505.30
2019-05-29T20:02:22.657Z,94520.06
2019-05-29T20:07:27.227Z,94533.53
2019-05-29T20:12:35.693Z,94537.10
2019-05-29T20:17:40.420Z,94534.55
2019-05-29T20:22:45.105Z,94537.63
2019-05-29T20:27:49.571Z,94535.94
2019-05-29T20:32:57.499Z,94537.59
2019-05-29T20:38:02.151Z,94544.67
2019-05-29T20:43:08.583Z,94542.29
2019-05-29T20:48:13.853Z,94551.73
2019-05-29T20:53:18.585Z,94558.16
2019-05-29T20:58:25.035Z,94556.11
2019-05-29T21:03:32.144Z,94573.14
2019-05-29T21:08:37.032Z,94571.58
2019-05-29T21:13:41.680Z,94573.56
2019-05-29T21:18:46.285Z,94580.70
2019-05-29T21:23:50.839Z,94579.42
2019-05-29T21:28:55.463Z,94588.97
2019-05-29T21:34:00.666Z,94580.36
2019-05-29T21:39:08.214Z,94578.50
2019-05-29T21:44:12.770Z,94582.42
2019-05-29T21:49:17.258Z,94575.67
2019-05-29T21:54:21.747Z,94585.00
2019-05-29T21:59:26.319Z,94582.41
2019-05-29T22:04:31.073Z,94586.86
2019-05-29T22:09:35.714Z,94590.44
2019-05-29T22:14:40.496Z,94590.50
2019-05-29T22:19:45.077Z,94591.92
2019-05-29T22:24:50.998Z,94586.34
2019-05-29T22:29:55.711Z,94586.67
2019-05-29T22:35:00.225Z,94587.63
2019-05-29T22:40:06.959Z,94587.83
2019-05-29T22:45:11.964Z,94593.52
2019-05-29T22:50:16.605Z,94606.05
2019-05-29T22:55:21.307Z,94603.46
2019-05-29T23:00:25.966Z,94610.81
2019-05-29T23:05:30.696Z,94613.82
2019-05-29T23:10:35.351Z,94612.66
2019-05-29T23:15:40.391Z,94617.53
2019-05-29T23:20:44.941Z,94618.80
2019-05-29T23:25:49.543Z,94616.84
2019-05-29T23:30:54.746Z,94625.80
2019-05-29T23:35:59.283Z,94624.21
2019-05-29T23:41:03.860Z,94632.85
2019-05-29T23:46:09.599Z,94626.39
2019-05-29T23:51:14.153Z,94625.69
2019-05-29T23:56:18.855Z,94629.64
